»·PEaware :: ASA515 KRDM-KPDX

ASA515 :: KRDM-KPDX

FLIGHT INFORMATION

Flight Status: Arrived
Operator:
Alaska Airlines
More flights by this operator :: More flights under this callsign
Pilot: Doug L. (8712)
Aircraft: BOEING 737-800
(B738)
More flights by this aircraft type
Origin: KRDM Roberts
United States
Destination: KPDX Portland Intl
United States
More flights between these airports :: More routes between these airports
Route: DSD V165 MAVER V448 BTG
File this flight plan on PilotEdge
Remarks:
Altitude:
(Current/Filed)
16,000ft
Speed:
(Current/Filed)
350kts
Departed: 08-Oct-18 03:40 PM
Arrived: 08-Oct-18 04:16 PM
Distance/Time
Traveled:
101nm/0:36
Distance/Time
To Go:
Arrived

Flight Plot

Page will automatically refresh every two minutes.

Flight plan parsing failed; only flown route is shown


Map Options




Map Legend


Flown Route
Filed Route
Departure Airport
Arrival Airport
Navaid (VOR, NDB)
Fix

Horizontal Profiles

Position Reports

Time Latitude Longitude Heading Altitude Ground
Speed
08-Oct-18 15:23 44.252949 -121.158856 329 3073ft 0kts
08-Oct-18 15:24 44.252949 -121.158856 329 3073ft 0kts
08-Oct-18 15:25 44.252949 -121.158856 329 3073ft 0kts
08-Oct-18 15:26 44.252949 -121.158856 329 3073ft 0kts
08-Oct-18 15:27 44.252949 -121.158856 329 3073ft 0kts
08-Oct-18 15:28 44.252949 -121.158856 329 3073ft 0kts
08-Oct-18 15:29 44.252949 -121.158856 329 3073ft 0kts
08-Oct-18 15:30 44.252949 -121.158856 329 3073ft 0kts
08-Oct-18 15:31 44.252949 -121.158856 329 3073ft 0kts
08-Oct-18 15:32 44.252949 -121.158856 329 3073ft 0kts
08-Oct-18 15:33 44.252949 -121.158856 329 3073ft 0kts
08-Oct-18 15:34 44.252949 -121.158856 329 3073ft 0kts
08-Oct-18 15:35 44.252864 -121.158785 329 3074ft 0kts
08-Oct-18 15:36 44.252749 -121.158243 235 3074ft 1kts
08-Oct-18 15:37 44.252774 -121.158190 239 3074ft 0kts
08-Oct-18 15:38 44.252774 -121.158190 239 3074ft 0kts
08-Oct-18 15:39 44.252441 -121.159007 240 3075ft 12kts
08-Oct-18 15:40 44.250563 -121.162372 152 3073ft 0kts
08-Oct-18 15:41 44.249695 -121.161350 63 3076ft 1kts
08-Oct-18 15:42 44.263882 -121.127473 55 3951ft 170kts
08-Oct-18 15:43 44.300088 -121.138038 287 6620ft 211kts
08-Oct-18 15:44 44.279487 -121.225800 248 8752ft 292kts
08-Oct-18 15:45 44.275094 -121.329053 287 11643ft 311kts
08-Oct-18 15:46 44.322233 -121.413597 321 14924ft 312kts
08-Oct-18 15:47 44.382213 -121.495444 315 16012ft 357kts
08-Oct-18 15:48 44.447500 -121.592418 315 15999ft 379kts
08-Oct-18 15:49 44.512547 -121.689659 314 16000ft 380kts
08-Oct-18 15:50 44.579296 -121.790307 314 15999ft 380kts
08-Oct-18 15:51 44.645820 -121.890548 314 15998ft 380kts
08-Oct-18 15:52 44.712798 -121.991355 314 16006ft 385kts
08-Oct-18 15:53 44.778530 -122.090796 314 14229ft 355kts
08-Oct-18 15:54 44.828229 -122.166598 314 12975ft 336kts
08-Oct-18 15:55 44.896576 -122.270756 314 12006ft 332kts
08-Oct-18 15:56 44.944992 -122.344806 314 12003ft 334kts
08-Oct-18 15:57 45.012792 -122.449293 314 12005ft 332kts
08-Oct-18 15:58 45.070551 -122.538263 313 12004ft 330kts
08-Oct-18 15:59 45.125611 -122.595461 341 12011ft 331kts
08-Oct-18 16:00 45.209585 -122.604156 357 12007ft 335kts
08-Oct-18 16:01 45.293845 -122.602515 357 10670ft 326kts
08-Oct-18 16:02 45.372771 -122.601520 348 8936ft 291kts
08-Oct-18 16:03 45.427843 -122.652463 314 7987ft 241kts
08-Oct-18 16:04 45.472957 -122.709815 319 7991ft 234kts
08-Oct-18 16:05 45.509672 -122.768850 314 8003ft 214kts
08-Oct-18 16:06 45.547012 -122.828383 314 7239ft 232kts
08-Oct-18 16:07 45.588931 -122.893315 314 5895ft 251kts
08-Oct-18 16:08 45.633396 -122.961037 314 4821ft 253kts
08-Oct-18 16:09 45.675371 -123.021868 330 3997ft 210kts
08-Oct-18 16:10 45.717974 -123.002760 57 4017ft 185kts
08-Oct-18 16:11 45.715940 -122.935935 115 4028ft 194kts
08-Oct-18 16:12 45.693382 -122.875467 116 3966ft 169kts
08-Oct-18 16:13 45.672459 -122.820925 117 3219ft 169kts
08-Oct-18 16:14 45.651868 -122.767605 118 2369ft 156kts
08-Oct-18 16:15 45.634070 -122.721765 118 1636ft 141kts
08-Oct-18 16:16 45.616909 -122.677412 118 949ft 139kts
08-Oct-18 16:17 45.599815 -122.633434 118 268ft 138kts
08-Oct-18 16:18 45.587936 -122.602659 111 37ft 31kts
08-Oct-18 16:19 45.588001 -122.599317 68 37ft 5kts
08-Oct-18 16:20 45.587837 -122.596175 34 37ft 8kts
08-Oct-18 16:21 45.588179 -122.595802 37 37ft 0kts
08-Oct-18 16:22 45.588179 -122.595802 37 37ft 0kts
08-Oct-18 16:23 45.588179 -122.595802 37 37ft 0kts
08-Oct-18 16:24 45.588179 -122.595802 37 37ft 0kts
08-Oct-18 16:25 45.588179 -122.595802 37 37ft 0kts

Navigation Log

Ident Type
Flight plan parsing failed, navigation log unavailable